< < Back
Terminal Aerodrome Forecast


Current Version              Previous Versions:   1  2  3  4  5  6  7  8  9  

Terminal Aerodrome Forecast

610
FTUS42 KFFC 011134
TAFAHN
TAF
KAHN 011134Z 0112/0212 26005KT P6SM FEW005 SCT050
     FM011400 36007KT P6SM FEW040
     FM011600 04009KT P6SM FEW045
     FM012000 08005KT P6SM SKC
     FM020600 11007KT P6SM SCT012
     FM020800 13007KT 3SM BR BKN007=

Latest METAR

453
SAUS70 KWBC 011300 RRI
MTRAHN
METAR KAHN 011251Z VRB04KT 10SM CLR 15/12 A3003 RMK AO2 SLP164
T01500122


USA.gov is the U.S. government's official web portal to all federal, state and local government web resources and services.